Nearby METAR Reports



KADS - Dallas/Addison, Texas, USA
Distance from station: SSW 10mi, 16km
Updated: Thu, 29-Oct-2020 5:47pm CDT
Partly cloudy
Partly cloudy
 Wind from NNW
Wind: NNW 10 mph , 17 km/h, Gust: 17 mph , 28 km/h
Temperature: 59°F , 15°C
Dew Point: 45°F , 7°C
Humidity: 59%
Barometer: 30.14 inHg , 1020.7 hPa
Clouds: Partly cloudy
Visibility: 13 miles , 21 km
Cloud details: Partly cloudy 3700 ft
2020/10/29 22:47 KADS 292247Z 34009G15KT 13SM SCT037 15/07 A3014
KTKI - Mckinney, Texas, USA
Distance from station: ENE 11mi, 18km
Updated: Thu, 29-Oct-2020 4:53pm CDT
Mostly cloudy
Mostly cloudy
 Wind from N
Wind: N 14 mph , 22 km/h, Gust: 22 mph , 35 km/h
Temperature: 59°F , 15°C
Dew Point: 45°F , 7°C
Humidity: 59%
Barometer: 30.13 inHg , 1020.3 hPa
Clouds: Mostly cloudy
Visibility: 10 miles , 16 km
Cloud details: Mostly cloudy 3800 ft
2020/10/29 21:53 KTKI 292153Z 35012G19KT 10SM BKN038 15/07 A3013 RMK AO2 SLP210 T01500067
 
KDAL - Dallas/Love Fld, Texas, USA
Distance from station: SSW 18mi, 30km
Updated: Thu, 29-Oct-2020 4:53pm CDT
Partly cloudy
Partly cloudy
 Wind from NNW
Wind: NNW 15 mph , 24 km/h, Gust: 24 mph , 39 km/h
Temperature: 61°F , 16°C
Dew Point: 45°F , 7°C
Humidity: 55%
Barometer: 30.13 inHg , 1020.3 hPa
Clouds: Partly cloudy
Visibility: 10 miles , 16 km
Cloud details: Partly cloudy 4000 ft
2020/10/29 21:53 KDAL 292153Z 33013G21KT 10SM SCT040 16/07 A3013 RMK AO2 PK WND 36028/2135 SLP200 T01610067 $
KDFW - Dallas/Ft Worth, Texas, USA
Distance from station: SW 21mi, 34km
Updated: Thu, 29-Oct-2020 4:53pm CDT
Few Clouds
Few Clouds
 Wind from NNW
Wind: NNW 16 mph , 26 km/h
Temperature: 61°F , 16°C
Dew Point: 45°F , 7°C
Humidity: 55%
Barometer: 30.12 inHg , 1020 hPa
Clouds: Few Clouds
Visibility: 10 miles , 16 km
Cloud details: Few Clouds 3800 ft
2020/10/29 21:53 KDFW 292153Z 34014KT 10SM FEW038 16/07 A3012 RMK AO2 SLP197 T01560067 $
 
KF46 - Rockwall, Texas, USA
Distance from station: ESE 22mi, 35km
Updated: Thu, 29-Oct-2020 5:35pm CDT
Mostly cloudy
Mostly cloudy
 Wind from N
Wind: N 12 mph , 19 km/h
Temperature: 59°F , 15°C
Dew Point: 45°F , 7°C
Humidity: 59%
Barometer: 30.13 inHg , 1020.3 hPa
Clouds: Mostly cloudy
Visibility: 10 miles , 16 km
Cloud details: Mostly cloudy 3700 ft
2020/10/29 22:35 KF46 292235Z AUTO 01010KT 10SM BKN037 15/07 A3013 RMK AO2 T01450069
KDTO - Denton, Texas, USA
Distance from station: WNW 27mi, 43km
Updated: Thu, 29-Oct-2020 4:53pm CDT
Clear
Clear
 Wind from N
Wind: N 17 mph , 28 km/h, Gust: 23 mph , 37 km/h
Temperature: 63°F , 17°C
Dew Point: 41°F , 5°C
Humidity: 45%
Barometer: 30.13 inHg , 1020.3 hPa
Clouds: Clear
Visibility: 10 miles , 16 km
2020/10/29 21:53 KDTO 292153Z 36015G20KT 10SM CLR 17/05 A3013 RMK AO2 SLP202 T01670050
 
KHQZ - Mesquite, Texas, USA
Distance from station: SSE 28mi, 44km
Updated: Thu, 29-Oct-2020 4:50pm CDT
Mostly cloudy
Mostly cloudy
 Wind from NW
Wind: NW 13 mph , 20 km/h, Gust: 18 mph , 30 km/h
Temperature: 59°F , 15°C
Dew Point: 45°F , 7°C
Humidity: 59%
Barometer: 30.12 inHg , 1020 hPa
Clouds: Mostly cloudy
Visibility: 10 miles , 16 km
Cloud details: Mostly cloudy 4000 ft
2020/10/29 21:50 KHQZ 292150Z 32011G16KT 10SM BKN040 15/07 A3012
KRBD - Dallas/Redbird, Texas, USA
Distance from station: SSW 30mi, 48km
Updated: Thu, 29-Oct-2020 4:53pm CDT
Overcast
Overcast
 Wind from NNW
Wind: NNW 13 mph , 20 km/h
Temperature: 61°F , 16°C
Dew Point: 45°F , 7°C
Humidity: 55%
Barometer: 30.12 inHg , 1020 hPa
Clouds: Overcast
Visibility: 10 miles , 16 km
Cloud details: Overcast 3800 ft
2020/10/29 21:53 KRBD 292153Z 34011KT 10SM OVC038 16/07 A3012 RMK AO2 SLP197 T01560067
 
KGPM - Grand Prairie, Texas, USA
Distance from station: SSW 33mi, 53km
Updated: Thu, 29-Oct-2020 4:50pm CDT
Partly cloudy
Partly cloudy
 Wind from NW
Wind: NW 8 mph , 13 km/h
Temperature: 61°F , 16°C
Dew Point: 43°F , 6°C
Humidity: 52%
Barometer: 30.15 inHg , 1021 hPa
Clouds: Partly cloudy
Visibility: 10 miles , 16 km
Cloud details: Partly cloudy 3600 ft
2020/10/29 21:50 KGPM 292150Z 31007KT 10SM SCT036 16/06 A3015
KAFW - Ft Worth/Allianc, Texas, USA
Distance from station: WSW 34mi, 55km
Updated: Thu, 29-Oct-2020 4:53pm CDT
Few Clouds
Few Clouds
 Wind from NNW
Wind: NNW 17 mph , 28 km/h
Temperature: 63°F , 17°C
Dew Point: 43°F , 6°C
Humidity: 49%
Barometer: 30.13 inHg , 1020.3 hPa
Clouds: Few Clouds
Visibility: 10 miles , 16 km
Cloud details: Few Clouds 3800 ft
2020/10/29 21:53 KAFW 292153Z 33015KT 10SM FEW038 17/06 A3013 RMK AO2 SLP205 T01670061
 
KLNC - Lancaster, Texas, USA
Distance from station: S 36mi, 58km
Updated: Thu, 29-Oct-2020 5:35pm CDT
Overcast
Overcast
 Wind from NW
Wind: NW 6 mph , 9 km/h
Temperature: 57°F , 14°C
Dew Point: 46°F , 8°C
Humidity: 67%
Barometer: 30.14 inHg , 1020.7 hPa
Clouds: Overcast
Visibility: 10 miles , 16 km
Cloud details: Overcast 3900 ft
2020/10/29 22:35 KLNC 292235Z AUTO 32005KT 10SM OVC039 14/08 A3014 RMK AO2 T01400079
KGKY - Arlington, Texas, USA
Distance from station: SSW 36mi, 59km
Updated: Thu, 29-Oct-2020 4:53pm CDT
Mostly cloudy
Mostly cloudy
 Wind from WNW
Wind: WNW 16 mph , 26 km/h
Temperature: 61°F , 16°C
Dew Point: 45°F , 7°C
Humidity: 55%
Barometer: 30.13 inHg , 1020.3 hPa
Clouds: Mostly cloudy
Visibility: 10 miles , 16 km
Cloud details: Mostly cloudy 3800 ft
2020/10/29 21:53 KGKY 292153Z 30014KT 10SM BKN038 16/07 A3013 RMK AO2 SLP201 T01610072
 
KTRL - Terrell, Texas, USA
Distance from station: SE 39mi, 63km
Updated: Thu, 29-Oct-2020 4:53pm CDT
Overcast
Overcast
 Wind from NW
Wind: NW 7 mph , 11 km/h
Temperature: 57°F , 14°C
Dew Point: 45°F , 7°C
Humidity: 63%
Barometer: 30.12 inHg , 1020 hPa
Clouds: Overcast
Visibility: 10 miles , 16 km
Cloud details: Overcast 3900 ft
2020/10/29 21:53 KTRL 292153Z AUTO 31006KT 10SM OVC039 14/07 A3012 RMK AO2 SLP200 T01390072
KGVT - Greenville/Major, Texas, USA
Distance from station: E 40mi, 64km
Updated: Thu, 29-Oct-2020 5:35pm CDT
Partly cloudy
Partly cloudy
 Wind from N
Wind: N 7 mph , 11 km/h
Temperature: 59°F , 15°C
Dew Point: 45°F , 7°C
Humidity: 59%
Barometer: 30.13 inHg , 1020.3 hPa
Clouds: Partly cloudy
Visibility: 10 miles , 16 km
Cloud details: Partly cloudy 3600 ft
2020/10/29 22:35 KGVT 292235Z AUTO 35006KT 10SM SCT036 15/07 A3013 RMK AO2
 
KFTW - Fort Worth, Texas, USA
Distance from station: WSW 40mi, 65km
Updated: Thu, 29-Oct-2020 4:53pm CDT
Few Clouds
Few Clouds
 Wind from NW
Wind: NW 14 mph , 22 km/h
Temperature: 59°F , 15°C
Dew Point: 45°F , 7°C
Humidity: 59%
Barometer: 30.14 inHg , 1020.7 hPa
Clouds: Few Clouds
Visibility: 10 miles , 16 km
Cloud details: Few Clouds 3800 ft
2020/10/29 21:53 KFTW 292153Z 32012KT 10SM FEW038 15/07 A3014 RMK AO2 SLP204 T01500067
KGYI - Sherman/Denison, Texas, USA
Distance from station: N 43mi, 69km
Updated: Thu, 29-Oct-2020 4:50pm CDT
Partly cloudy
Partly cloudy
 Wind from N
Wind: N 14 mph , 22 km/h, Gust: 22 mph , 35 km/h
Temperature: 59°F , 15°C
Dew Point: 43°F , 6°C
Humidity: 55%
Barometer: 30.14 inHg , 1020.7 hPa
Clouds: Partly cloudy
Visibility: 10 miles , 16 km
Cloud details: Partly cloudy 3200 ft
2020/10/29 21:50 KGYI 292150Z 35012G19KT 10SM SCT032 15/06 A3014
 
KNFW - Fort Worth Nas, Texas, USA
Distance from station: WSW 45mi, 73km
Updated: Thu, 29-Oct-2020 4:52pm CDT
Partly cloudy
Partly cloudy
 Wind from NNW
Wind: NNW 13 mph , 20 km/h
Temperature: 55°F , 13°C
Dew Point: 43°F , 6°C
Humidity: 63%
Barometer: 30.15 inHg , 1021 hPa
Clouds: Partly cloudy
Visibility: 10 miles , 16 km
Cloud details: Partly cloudy 4000 ft
2020/10/29 21:52 KNFW 292152Z 34011KT 10SM SCT040 13/06 A3015 RMK AO2 SLP193 T01280061 $
KGLE - Gainesville, Texas, USA
Distance from station: NW 46mi, 74km
Updated: Thu, 29-Oct-2020 5:35pm CDT
Clear
Clear
 Wind from NNW
Wind: NNW 13 mph , 20 km/h
Temperature: 59°F , 15°C
Dew Point: 37°F , 3°C
Humidity: 45%
Barometer: 30.16 inHg , 1021.3 hPa
Clouds: Clear
Visibility: 10 miles , 16 km
2020/10/29 22:35 KGLE 292235Z AUTO 34011KT 10SM CLR 15/03 A3016 RMK AO2 T01500030
 
KJWY - Midlothian/Wax, Texas, USA
Distance from station: SSW 46mi, 74km
Updated: Thu, 29-Oct-2020 5:35pm CDT
Overcast
Overcast
 Wind from WNW
Wind: WNW 7 mph , 11 km/h
Temperature: 57°F , 14°C
Dew Point: 46°F , 8°C
Humidity: 67%
Barometer: 30.16 inHg , 1021.3 hPa
Clouds: Overcast
Visibility: 10 miles , 16 km
Cloud details: Overcast 3600 ft
2020/10/29 22:35 KJWY 292235Z AUTO 30006KT 10SM OVC036 14/08 A3016 RMK AO2 T01350079
KFWS - Fort Worth/88d, Texas, USA
Distance from station: SW 49mi, 79km
Updated: Thu, 29-Oct-2020 4:47pm CDT
Partly cloudy
Partly cloudy
 Wind from NW
Wind: NW 13 mph , 20 km/h
Temperature: 57°F , 14°C
Dew Point: 45°F , 7°C
Humidity: 63%
Barometer: 30.16 inHg , 1021.3 hPa
Clouds: Partly cloudy
Visibility: 10 miles , 16 km
Cloud details: Partly cloudy 3700 ft
2020/10/29 21:47 KFWS 292147Z 32011KT 10SM SCT037 14/07 A3016